sensor_id;sensor_type;location;lat;lon;timestamp;P1;durP1;ratioP1;P2;durP2;ratioP2
28298;SDS011;15565;52.600;6.456;2022-08-04T00:01:06;6.45;;;1.77;;
28298;SDS011;15565;52.600;6.456;2022-08-04T00:03:57;5.50;;;1.50;;
28298;SDS011;15565;52.600;6.456;2022-08-04T00:06:49;5.13;;;1.85;;
28298;SDS011;15565;52.600;6.456;2022-08-04T00:09:38;5.32;;;1.90;;
28298;SDS011;15565;52.600;6.456;2022-08-04T00:12:25;4.37;;;1.77;;
28298;SDS011;15565;52.600;6.456;2022-08-04T00:15:17;5.25;;;1.73;;
28298;SDS011;15565;52.600;6.456;2022-08-04T00:18:06;7.43;;;2.53;;
28298;SDS011;15565;52.600;6.456;2022-08-04T00:20:58;3.20;;;2.03;;
28298;SDS011;15565;52.600;6.456;2022-08-04T00:23:45;8.57;;;2.38;;
28298;SDS011;15565;52.600;6.456;2022-08-04T00:26:54;5.30;;;1.95;;
28298;SDS011;15565;52.600;6.456;2022-08-04T00:29:41;5.60;;;2.28;;
28298;SDS011;15565;52.600;6.456;2022-08-04T00:32:28;6.70;;;2.80;;
28298;SDS011;15565;52.600;6.456;2022-08-04T00:35:18;7.65;;;2.35;;
28298;SDS011;15565;52.600;6.456;2022-08-04T00:38:07;2.67;;;1.70;;
28298;SDS011;15565;52.600;6.456;2022-08-04T00:40:56;4.05;;;2.35;;
28298;SDS011;15565;52.600;6.456;2022-08-04T00:43:47;5.75;;;2.45;;
28298;SDS011;15565;52.600;6.456;2022-08-04T00:46:46;4.55;;;2.17;;
28298;SDS011;15565;52.600;6.456;2022-08-04T00:49:42;2.78;;;2.17;;
28298;SDS011;15565;52.600;6.456;2022-08-04T00:52:43;5.78;;;2.22;;
28298;SDS011;15565;52.600;6.456;2022-08-04T00:56:03;5.18;;;3.05;;
28298;SDS011;15565;52.600;6.456;2022-08-04T00:58:54;5.28;;;1.83;;
28298;SDS011;15565;52.600;6.456;2022-08-04T01:01:48;3.10;;;2.15;;
28298;SDS011;15565;52.600;6.456;2022-08-04T01:04:42;5.97;;;1.90;;
28298;SDS011;15565;52.600;6.456;2022-08-04T01:07:41;5.25;;;1.85;;
28298;SDS011;15565;52.600;6.456;2022-08-04T01:10:35;5.78;;;2.30;;
28298;SDS011;15565;52.600;6.456;2022-08-04T01:13:43;3.90;;;2.63;;
28298;SDS011;15565;52.600;6.456;2022-08-04T01:16:34;4.43;;;2.22;;
28298;SDS011;15565;52.600;6.456;2022-08-04T01:19:35;6.47;;;3.15;;
28298;SDS011;15565;52.600;6.456;2022-08-04T01:25:40;3.72;;;2.35;;
28298;SDS011;15565;52.600;6.456;2022-08-04T01:28:35;4.28;;;1.98;;
28298;SDS011;15565;52.600;6.456;2022-08-04T01:31:31;8.55;;;2.45;;
28298;SDS011;15565;52.600;6.456;2022-08-04T01:34:21;7.05;;;2.50;;
28298;SDS011;15565;52.600;6.456;2022-08-04T01:37:14;5.75;;;2.45;;
28298;SDS011;15565;52.600;6.456;2022-08-04T01:40:03;4.93;;;2.03;;
28298;SDS011;15565;52.600;6.456;2022-08-04T01:42:52;6.05;;;2.80;;
28298;SDS011;15565;52.600;6.456;2022-08-04T01:45:40;3.53;;;2.22;;
28298;SDS011;15565;52.600;6.456;2022-08-04T01:48:28;4.88;;;3.00;;
28298;SDS011;15565;52.600;6.456;2022-08-04T01:51:15;3.50;;;2.72;;
28298;SDS011;15565;52.600;6.456;2022-08-04T01:54:03;4.90;;;2.30;;
28298;SDS011;15565;52.600;6.456;2022-08-04T01:56:50;8.27;;;2.38;;
28298;SDS011;15565;52.600;6.456;2022-08-04T01:59:38;6.95;;;2.88;;
28298;SDS011;15565;52.600;6.456;2022-08-04T02:02:24;4.28;;;2.08;;
28298;SDS011;15565;52.600;6.456;2022-08-04T02:05:14;5.55;;;2.85;;
28298;SDS011;15565;52.600;6.456;2022-08-04T02:08:04;2.10;;;1.67;;
28298;SDS011;15565;52.600;6.456;2022-08-04T02:10:53;4.85;;;2.67;;
28298;SDS011;15565;52.600;6.456;2022-08-04T02:13:51;7.72;;;3.38;;
28298;SDS011;15565;52.600;6.456;2022-08-04T02:16:41;4.45;;;2.72;;
28298;SDS011;15565;52.600;6.456;2022-08-04T02:19:40;7.82;;;2.60;;
28298;SDS011;15565;52.600;6.456;2022-08-04T02:22:33;6.45;;;2.30;;
28298;SDS011;15565;52.600;6.456;2022-08-04T02:25:22;3.15;;;1.90;;
28298;SDS011;15565;52.600;6.456;2022-08-04T02:28:20;4.80;;;2.23;;
28298;SDS011;15565;52.600;6.456;2022-08-04T02:31:12;4.85;;;2.20;;
28298;SDS011;15565;52.600;6.456;2022-08-04T02:34:02;5.63;;;2.07;;
28298;SDS011;15565;52.600;6.456;2022-08-04T02:36:51;5.13;;;3.20;;
28298;SDS011;15565;52.600;6.456;2022-08-04T02:39:41;3.55;;;2.22;;
28298;SDS011;15565;52.600;6.456;2022-08-04T02:42:33;3.70;;;2.05;;
28298;SDS011;15565;52.600;6.456;2022-08-04T02:45:20;5.00;;;3.40;;
28298;SDS011;15565;52.600;6.456;2022-08-04T02:48:09;4.63;;;2.15;;
28298;SDS011;15565;52.600;6.456;2022-08-04T02:51:15;3.28;;;2.08;;
28298;SDS011;15565;52.600;6.456;2022-08-04T02:54:04;5.72;;;2.88;;
28298;SDS011;15565;52.600;6.456;2022-08-04T02:56:52;4.90;;;2.10;;
28298;SDS011;15565;52.600;6.456;2022-08-04T02:59:43;5.00;;;2.40;;
28298;SDS011;15565;52.600;6.456;2022-08-04T03:02:38;9.30;;;2.75;;
28298;SDS011;15565;52.600;6.456;2022-08-04T03:05:30;7.63;;;2.28;;
28298;SDS011;15565;52.600;6.456;2022-08-04T03:08:48;4.60;;;2.08;;
28298;SDS011;15565;52.600;6.456;2022-08-04T03:11:47;5.10;;;2.07;;
28298;SDS011;15565;52.600;6.456;2022-08-04T03:14:49;4.93;;;3.45;;
28298;SDS011;15565;52.600;6.456;2022-08-04T03:17:48;4.45;;;1.92;;
28298;SDS011;15565;52.600;6.456;2022-08-04T03:20:46;6.32;;;2.35;;
28298;SDS011;15565;52.600;6.456;2022-08-04T03:23:49;3.38;;;2.50;;
28298;SDS011;15565;52.600;6.456;2022-08-04T03:26:51;4.38;;;2.05;;
28298;SDS011;15565;52.600;6.456;2022-08-04T03:29:57;5.47;;;2.38;;
28298;SDS011;15565;52.600;6.456;2022-08-04T03:36:06;6.25;;;2.65;;
28298;SDS011;15565;52.600;6.456;2022-08-04T03:39:07;5.32;;;2.78;;
28298;SDS011;15565;52.600;6.456;2022-08-04T03:42:13;3.73;;;2.03;;
28298;SDS011;15565;52.600;6.456;2022-08-04T03:45:10;6.60;;;2.90;;
28298;SDS011;15565;52.600;6.456;2022-08-04T03:48:10;5.40;;;2.83;;
28298;SDS011;15565;52.600;6.456;2022-08-04T03:57:45;4.57;;;2.72;;
28298;SDS011;15565;52.600;6.456;2022-08-04T04:00:35;7.38;;;2.40;;
28298;SDS011;15565;52.600;6.456;2022-08-04T04:03:39;4.97;;;2.40;;
28298;SDS011;15565;52.600;6.456;2022-08-04T04:06:43;4.45;;;2.53;;
28298;SDS011;15565;52.600;6.456;2022-08-04T04:09:43;8.50;;;2.58;;
28298;SDS011;15565;52.600;6.456;2022-08-04T04:12:57;4.77;;;2.53;;
28298;SDS011;15565;52.600;6.456;2022-08-04T04:19:04;5.45;;;2.13;;
28298;SDS011;15565;52.600;6.456;2022-08-04T04:21:57;6.10;;;2.17;;
28298;SDS011;15565;52.600;6.456;2022-08-04T04:24:53;3.60;;;2.58;;
28298;SDS011;15565;52.600;6.456;2022-08-04T04:27:50;6.43;;;2.00;;
28298;SDS011;15565;52.600;6.456;2022-08-04T04:30:40;4.70;;;2.75;;
28298;SDS011;15565;52.600;6.456;2022-08-04T04:33:36;5.40;;;2.50;;
28298;SDS011;15565;52.600;6.456;2022-08-04T04:36:27;2.47;;;1.98;;
28298;SDS011;15565;52.600;6.456;2022-08-04T04:39:17;5.72;;;2.33;;
28298;SDS011;15565;52.600;6.456;2022-08-04T04:42:11;7.00;;;2.05;;
28298;SDS011;15565;52.600;6.456;2022-08-04T04:45:14;6.65;;;2.97;;
28298;SDS011;15565;52.600;6.456;2022-08-04T04:48:06;5.25;;;2.42;;
28298;SDS011;15565;52.600;6.456;2022-08-04T04:50:57;4.10;;;2.88;;
28298;SDS011;15565;52.600;6.456;2022-08-04T04:53:53;10.20;;;2.80;;
28298;SDS011;15565;52.600;6.456;2022-08-04T04:56:46;6.55;;;3.22;;
28298;SDS011;15565;52.600;6.456;2022-08-04T04:59:35;6.18;;;2.72;;
28298;SDS011;15565;52.600;6.456;2022-08-04T05:02:36;6.10;;;3.10;;
28298;SDS011;15565;52.600;6.456;2022-08-04T05:05:27;5.28;;;2.72;;
28298;SDS011;15565;52.600;6.456;2022-08-04T05:08:27;6.60;;;3.10;;
28298;SDS011;15565;52.600;6.456;2022-08-04T05:14:33;4.20;;;2.78;;
28298;SDS011;15565;52.600;6.456;2022-08-04T05:17:26;4.38;;;3.88;;
28298;SDS011;15565;52.600;6.456;2022-08-04T05:20:14;9.65;;;3.97;;
28298;SDS011;15565;52.600;6.456;2022-08-04T05:23:02;9.23;;;3.55;;
28298;SDS011;15565;52.600;6.456;2022-08-04T05:25:54;6.82;;;2.55;;
28298;SDS011;15565;52.600;6.456;2022-08-04T05:28:47;7.70;;;2.88;;
28298;SDS011;15565;52.600;6.456;2022-08-04T05:31:37;7.45;;;3.28;;
28298;SDS011;15565;52.600;6.456;2022-08-04T05:34:26;7.97;;;3.30;;
28298;SDS011;15565;52.600;6.456;2022-08-04T05:37:14;8.18;;;2.72;;
28298;SDS011;15565;52.600;6.456;2022-08-04T05:40:03;7.28;;;3.05;;
28298;SDS011;15565;52.600;6.456;2022-08-04T05:42:50;7.60;;;2.50;;
28298;SDS011;15565;52.600;6.456;2022-08-04T05:45:37;5.15;;;3.10;;
28298;SDS011;15565;52.600;6.456;2022-08-04T05:48:25;5.43;;;2.83;;
28298;SDS011;15565;52.600;6.456;2022-08-04T05:51:13;5.28;;;2.85;;
28298;SDS011;15565;52.600;6.456;2022-08-04T05:54:00;5.70;;;2.67;;
28298;SDS011;15565;52.600;6.456;2022-08-04T05:56:47;6.60;;;3.03;;
28298;SDS011;15565;52.600;6.456;2022-08-04T05:59:36;8.38;;;3.78;;
28298;SDS011;15565;52.600;6.456;2022-08-04T06:02:24;7.22;;;2.90;;
28298;SDS011;15565;52.600;6.456;2022-08-04T06:05:14;7.72;;;3.40;;
28298;SDS011;15565;52.600;6.456;2022-08-04T06:08:01;5.85;;;2.88;;
28298;SDS011;15565;52.600;6.456;2022-08-04T06:10:58;4.60;;;2.87;;
28298;SDS011;15565;52.600;6.456;2022-08-04T06:13:49;6.13;;;3.92;;
28298;SDS011;15565;52.600;6.456;2022-08-04T06:16:38;8.07;;;3.58;;
28298;SDS011;15565;52.600;6.456;2022-08-04T06:19:26;6.05;;;3.15;;
28298;SDS011;15565;52.600;6.456;2022-08-04T06:22:37;3.78;;;2.90;;
28298;SDS011;15565;52.600;6.456;2022-08-04T06:25:27;10.38;;;4.07;;
28298;SDS011;15565;52.600;6.456;2022-08-04T06:28:15;11.07;;;3.10;;
28298;SDS011;15565;52.600;6.456;2022-08-04T06:31:03;5.72;;;2.70;;
28298;SDS011;15565;52.600;6.456;2022-08-04T06:34:13;4.80;;;2.70;;
28298;SDS011;15565;52.600;6.456;2022-08-04T06:37:00;5.68;;;3.22;;
28298;SDS011;15565;52.600;6.456;2022-08-04T06:39:48;5.23;;;2.90;;
28298;SDS011;15565;52.600;6.456;2022-08-04T06:42:37;6.32;;;2.72;;
28298;SDS011;15565;52.600;6.456;2022-08-04T06:45:24;4.90;;;2.47;;
28298;SDS011;15565;52.600;6.456;2022-08-04T06:48:13;7.45;;;3.22;;
28298;SDS011;15565;52.600;6.456;2022-08-04T06:51:01;3.92;;;2.30;;
28298;SDS011;15565;52.600;6.456;2022-08-04T06:54:08;4.90;;;2.65;;
28298;SDS011;15565;52.600;6.456;2022-08-04T06:56:56;8.57;;;3.50;;
28298;SDS011;15565;52.600;6.456;2022-08-04T06:59:45;5.18;;;3.10;;
28298;SDS011;15565;52.600;6.456;2022-08-04T07:02:33;5.20;;;2.45;;
28298;SDS011;15565;52.600;6.456;2022-08-04T07:05:24;3.10;;;2.00;;
28298;SDS011;15565;52.600;6.456;2022-08-04T07:08:11;6.80;;;3.87;;
28298;SDS011;15565;52.600;6.456;2022-08-04T07:10:58;3.85;;;2.50;;
28298;SDS011;15565;52.600;6.456;2022-08-04T07:13:47;7.57;;;2.72;;
28298;SDS011;15565;52.600;6.456;2022-08-04T07:16:34;5.18;;;1.90;;
28298;SDS011;15565;52.600;6.456;2022-08-04T07:19:21;3.35;;;1.88;;
28298;SDS011;15565;52.600;6.456;2022-08-04T07:22:08;4.28;;;1.98;;
28298;SDS011;15565;52.600;6.456;2022-08-04T07:25:09;5.65;;;2.10;;
28298;SDS011;15565;52.600;6.456;2022-08-04T07:27:57;3.53;;;1.92;;
28298;SDS011;15565;52.600;6.456;2022-08-04T07:30:45;5.13;;;2.00;;
28298;SDS011;15565;52.600;6.456;2022-08-04T07:33:33;6.35;;;2.17;;
28298;SDS011;15565;52.600;6.456;2022-08-04T07:36:20;6.57;;;2.47;;
28298;SDS011;15565;52.600;6.456;2022-08-04T07:39:12;4.18;;;1.95;;
28298;SDS011;15565;52.600;6.456;2022-08-04T07:42:11;3.00;;;2.15;;
28298;SDS011;15565;52.600;6.456;2022-08-04T07:44:58;5.70;;;2.53;;
28298;SDS011;15565;52.600;6.456;2022-08-04T07:47:48;5.47;;;2.05;;
28298;SDS011;15565;52.600;6.456;2022-08-04T07:50:49;12.40;;;2.10;;
28298;SDS011;15565;52.600;6.456;2022-08-04T07:53:36;6.93;;;1.80;;
28298;SDS011;15565;52.600;6.456;2022-08-04T07:56:40;4.30;;;1.97;;
28298;SDS011;15565;52.600;6.456;2022-08-04T07:59:27;5.07;;;1.50;;
28298;SDS011;15565;52.600;6.456;2022-08-04T08:02:14;7.10;;;1.92;;
28298;SDS011;15565;52.600;6.456;2022-08-04T08:05:03;4.18;;;1.70;;
28298;SDS011;15565;52.600;6.456;2022-08-04T08:07:50;3.55;;;1.85;;
28298;SDS011;15565;52.600;6.456;2022-08-04T08:10:38;5.00;;;2.17;;
28298;SDS011;15565;52.600;6.456;2022-08-04T08:13:31;5.47;;;1.97;;
28298;SDS011;15565;52.600;6.456;2022-08-04T08:16:18;8.63;;;2.33;;
28298;SDS011;15565;52.600;6.456;2022-08-04T08:19:09;4.07;;;2.30;;
28298;SDS011;15565;52.600;6.456;2022-08-04T08:21:57;3.92;;;2.38;;
28298;SDS011;15565;52.600;6.456;2022-08-04T08:24:45;4.80;;;2.38;;
28298;SDS011;15565;52.600;6.456;2022-08-04T08:27:32;3.40;;;2.35;;
28298;SDS011;15565;52.600;6.456;2022-08-04T08:30:22;5.20;;;2.30;;
28298;SDS011;15565;52.600;6.456;2022-08-04T08:33:16;8.65;;;2.85;;
28298;SDS011;15565;52.600;6.456;2022-08-04T08:36:06;5.72;;;2.30;;
28298;SDS011;15565;52.600;6.456;2022-08-04T08:39:00;5.88;;;1.75;;
28298;SDS011;15565;52.600;6.456;2022-08-04T08:42:01;7.65;;;2.55;;
28298;SDS011;15565;52.600;6.456;2022-08-04T08:45:09;4.10;;;1.70;;
28298;SDS011;15565;52.600;6.456;2022-08-04T08:48:09;5.53;;;2.63;;
28298;SDS011;15565;52.600;6.456;2022-08-04T08:51:02;3.85;;;2.47;;
28298;SDS011;15565;52.600;6.456;2022-08-04T08:56:59;5.63;;;1.90;;
28298;SDS011;15565;52.600;6.456;2022-08-04T08:59:59;6.43;;;2.10;;
28298;SDS011;15565;52.600;6.456;2022-08-04T09:05:56;7.70;;;3.53;;
28298;SDS011;15565;52.600;6.456;2022-08-04T09:08:57;10.82;;;3.30;;
28298;SDS011;15565;52.600;6.456;2022-08-04T09:11:47;7.75;;;3.28;;
28298;SDS011;15565;52.600;6.456;2022-08-04T09:14:40;7.00;;;3.03;;
28298;SDS011;15565;52.600;6.456;2022-08-04T09:17:29;7.18;;;2.20;;
28298;SDS011;15565;52.600;6.456;2022-08-04T09:20:21;4.38;;;2.25;;
28298;SDS011;15565;52.600;6.456;2022-08-04T09:23:12;5.22;;;3.10;;
28298;SDS011;15565;52.600;6.456;2022-08-04T09:26:04;5.40;;;2.33;;
28298;SDS011;15565;52.600;6.456;2022-08-04T09:28:52;4.63;;;2.42;;
28298;SDS011;15565;52.600;6.456;2022-08-04T09:31:43;5.25;;;2.58;;
28298;SDS011;15565;52.600;6.456;2022-08-04T09:35:00;4.32;;;2.72;;
28298;SDS011;15565;52.600;6.456;2022-08-04T09:37:57;4.30;;;2.75;;
28298;SDS011;15565;52.600;6.456;2022-08-04T09:40:47;6.63;;;2.87;;
28298;SDS011;15565;52.600;6.456;2022-08-04T09:43:42;9.82;;;3.03;;
28298;SDS011;15565;52.600;6.456;2022-08-04T09:46:57;5.40;;;2.72;;
28298;SDS011;15565;52.600;6.456;2022-08-04T09:49:46;2.53;;;1.80;;
28298;SDS011;15565;52.600;6.456;2022-08-04T09:52:40;7.30;;;1.83;;
28298;SDS011;15565;52.600;6.456;2022-08-04T09:55:33;7.05;;;2.20;;
28298;SDS011;15565;52.600;6.456;2022-08-04T09:58:48;9.13;;;2.70;;
28298;SDS011;15565;52.600;6.456;2022-08-04T10:01:36;5.68;;;2.50;;
28298;SDS011;15565;52.600;6.456;2022-08-04T10:04:26;8.25;;;3.55;;
28298;SDS011;15565;52.600;6.456;2022-08-04T10:07:27;5.10;;;3.15;;
28298;SDS011;15565;52.600;6.456;2022-08-04T10:10:17;6.22;;;2.45;;
28298;SDS011;15565;52.600;6.456;2022-08-04T10:16:13;5.70;;;2.20;;
28298;SDS011;15565;52.600;6.456;2022-08-04T10:19:06;4.93;;;2.53;;
28298;SDS011;15565;52.600;6.456;2022-08-04T10:22:05;8.90;;;3.38;;
28298;SDS011;15565;52.600;6.456;2022-08-04T10:25:16;4.70;;;1.95;;
28298;SDS011;15565;52.600;6.456;2022-08-04T10:28:29;3.70;;;1.75;;
28298;SDS011;15565;52.600;6.456;2022-08-04T10:31:19;4.53;;;1.40;;
28298;SDS011;15565;52.600;6.456;2022-08-04T10:34:09;2.67;;;1.77;;
28298;SDS011;15565;52.600;6.456;2022-08-04T10:36:58;6.28;;;2.00;;
28298;SDS011;15565;52.600;6.456;2022-08-04T10:39:51;5.68;;;1.73;;
28298;SDS011;15565;52.600;6.456;2022-08-04T10:42:55;1.70;;;1.58;;
28298;SDS011;15565;52.600;6.456;2022-08-04T10:45:44;1.48;;;1.10;;
28298;SDS011;15565;52.600;6.456;2022-08-04T10:48:41;3.83;;;1.10;;
28298;SDS011;15565;52.600;6.456;2022-08-04T10:51:32;4.70;;;1.35;;
28298;SDS011;15565;52.600;6.456;2022-08-04T10:54:42;3.28;;;1.15;;
28298;SDS011;15565;52.600;6.456;2022-08-04T10:57:35;3.75;;;0.75;;
28298;SDS011;15565;52.600;6.456;2022-08-04T11:00:25;3.03;;;1.55;;
28298;SDS011;15565;52.600;6.456;2022-08-04T11:03:16;2.43;;;1.10;;
28298;SDS011;15565;52.600;6.456;2022-08-04T11:06:05;2.05;;;0.95;;
28298;SDS011;15565;52.600;6.456;2022-08-04T11:08:53;4.20;;;1.00;;
28298;SDS011;15565;52.600;6.456;2022-08-04T11:11:42;3.75;;;1.08;;
28298;SDS011;15565;52.600;6.456;2022-08-04T11:14:48;3.58;;;0.90;;
28298;SDS011;15565;52.600;6.456;2022-08-04T11:17:37;2.13;;;1.40;;
28298;SDS011;15565;52.600;6.456;2022-08-04T11:20:28;6.47;;;1.00;;
28298;SDS011;15565;52.600;6.456;2022-08-04T11:23:22;2.27;;;1.03;;
28298;SDS011;15565;52.600;6.456;2022-08-04T11:26:14;2.80;;;1.10;;
28298;SDS011;15565;52.600;6.456;2022-08-04T11:29:04;2.20;;;0.60;;
28298;SDS011;15565;52.600;6.456;2022-08-04T11:31:57;1.08;;;0.70;;
28298;SDS011;15565;52.600;6.456;2022-08-04T11:34:46;5.38;;;1.10;;
28298;SDS011;15565;52.600;6.456;2022-08-04T11:37:40;2.03;;;0.90;;
28298;SDS011;15565;52.600;6.456;2022-08-04T11:40:31;3.45;;;1.55;;
28298;SDS011;15565;52.600;6.456;2022-08-04T11:43:23;3.57;;;1.10;;
28298;SDS011;15565;52.600;6.456;2022-08-04T11:46:31;2.97;;;0.90;;
28298;SDS011;15565;52.600;6.456;2022-08-04T11:49:25;2.10;;;0.60;;
28298;SDS011;15565;52.600;6.456;2022-08-04T11:52:13;2.60;;;0.88;;
28298;SDS011;15565;52.600;6.456;2022-08-04T11:55:02;5.50;;;1.33;;
28298;SDS011;15565;52.600;6.456;2022-08-04T11:57:50;1.80;;;0.93;;
28298;SDS011;15565;52.600;6.456;2022-08-04T12:00:39;5.20;;;0.60;;
28298;SDS011;15565;52.600;6.456;2022-08-04T12:03:31;3.38;;;0.55;;
28298;SDS011;15565;52.600;6.456;2022-08-04T12:06:24;2.65;;;0.60;;
28298;SDS011;15565;52.600;6.456;2022-08-04T12:09:16;1.80;;;1.27;;
28298;SDS011;15565;52.600;6.456;2022-08-04T12:12:08;1.27;;;0.80;;
28298;SDS011;15565;52.600;6.456;2022-08-04T12:15:02;3.77;;;0.73;;
28298;SDS011;15565;52.600;6.456;2022-08-04T12:17:53;0.60;;;0.52;;
28298;SDS011;15565;52.600;6.456;2022-08-04T12:20:46;1.40;;;0.80;;
28298;SDS011;15565;52.600;6.456;2022-08-04T12:23:37;4.25;;;0.90;;
28298;SDS011;15565;52.600;6.456;2022-08-04T12:26:26;1.67;;;0.70;;
28298;SDS011;15565;52.600;6.456;2022-08-04T12:29:13;2.50;;;0.90;;
28298;SDS011;15565;52.600;6.456;2022-08-04T12:32:03;1.00;;;0.57;;
28298;SDS011;15565;52.600;6.456;2022-08-04T12:34:56;1.17;;;0.82;;
28298;SDS011;15565;52.600;6.456;2022-08-04T12:37:47;1.95;;;0.90;;
28298;SDS011;15565;52.600;6.456;2022-08-04T12:40:38;4.50;;;1.00;;
28298;SDS011;15565;52.600;6.456;2022-08-04T12:43:28;3.22;;;0.90;;
28298;SDS011;15565;52.600;6.456;2022-08-04T12:46:18;4.50;;;0.70;;
28298;SDS011;15565;52.600;6.456;2022-08-04T12:49:06;1.58;;;0.70;;
28298;SDS011;15565;52.600;6.456;2022-08-04T12:51:54;1.10;;;0.80;;
28298;SDS011;15565;52.600;6.456;2022-08-04T12:54:53;3.70;;;0.93;;
28298;SDS011;15565;52.600;6.456;2022-08-04T12:57:41;6.97;;;1.45;;
28298;SDS011;15565;52.600;6.456;2022-08-04T13:00:32;1.85;;;0.70;;
28298;SDS011;15565;52.600;6.456;2022-08-04T13:03:26;2.67;;;0.80;;
28298;SDS011;15565;52.600;6.456;2022-08-04T13:06:14;1.00;;;0.60;;
28298;SDS011;15565;52.600;6.456;2022-08-04T13:09:07;1.38;;;0.75;;
28298;SDS011;15565;52.600;6.456;2022-08-04T13:12:02;1.33;;;0.60;;
28298;SDS011;15565;52.600;6.456;2022-08-04T13:14:52;1.38;;;0.60;;
28298;SDS011;15565;52.600;6.456;2022-08-04T13:17:54;1.00;;;0.70;;
28298;SDS011;15565;52.600;6.456;2022-08-04T13:20:43;1.50;;;0.88;;
28298;SDS011;15565;52.600;6.456;2022-08-04T13:23:31;1.90;;;0.88;;
28298;SDS011;15565;52.600;6.456;2022-08-04T13:26:45;1.58;;;1.00;;
28298;SDS011;15565;52.600;6.456;2022-08-04T13:29:40;0.80;;;0.43;;
28298;SDS011;15565;52.600;6.456;2022-08-04T13:32:46;2.10;;;0.40;;
28298;SDS011;15565;52.600;6.456;2022-08-04T13:35:33;0.90;;;0.60;;
28298;SDS011;15565;52.600;6.456;2022-08-04T13:38:44;1.30;;;0.60;;
28298;SDS011;15565;52.600;6.456;2022-08-04T13:41:32;2.17;;;0.57;;
28298;SDS011;15565;52.600;6.456;2022-08-04T13:44:24;0.75;;;0.52;;
28298;SDS011;15565;52.600;6.456;2022-08-04T13:47:13;0.57;;;0.30;;
28298;SDS011;15565;52.600;6.456;2022-08-04T13:50:05;2.73;;;0.80;;
28298;SDS011;15565;52.600;6.456;2022-08-04T13:52:56;2.03;;;0.40;;
28298;SDS011;15565;52.600;6.456;2022-08-04T13:55:44;0.73;;;0.40;;
28298;SDS011;15565;52.600;6.456;2022-08-04T13:58:44;1.45;;;0.40;;
28298;SDS011;15565;52.600;6.456;2022-08-04T14:01:33;2.05;;;0.75;;
28298;SDS011;15565;52.600;6.456;2022-08-04T14:04:21;1.40;;;0.50;;
28298;SDS011;15565;52.600;6.456;2022-08-04T14:07:11;0.98;;;0.50;;
28298;SDS011;15565;52.600;6.456;2022-08-04T14:10:08;0.75;;;0.40;;
28298;SDS011;15565;52.600;6.456;2022-08-04T14:12:55;1.75;;;0.57;;
28298;SDS011;15565;52.600;6.456;2022-08-04T14:15:42;1.75;;;1.42;;
28298;SDS011;15565;52.600;6.456;2022-08-04T14:18:49;0.70;;;0.57;;
28298;SDS011;15565;52.600;6.456;2022-08-04T14:21:42;1.20;;;0.70;;
28298;SDS011;15565;52.600;6.456;2022-08-04T14:24:32;0.90;;;0.30;;
28298;SDS011;15565;52.600;6.456;2022-08-04T14:27:19;1.98;;;0.80;;
28298;SDS011;15565;52.600;6.456;2022-08-04T14:30:06;1.52;;;0.63;;
28298;SDS011;15565;52.600;6.456;2022-08-04T14:32:54;0.88;;;0.52;;
28298;SDS011;15565;52.600;6.456;2022-08-04T14:35:41;2.50;;;0.55;;
28298;SDS011;15565;52.600;6.456;2022-08-04T14:38:51;0.68;;;0.68;;
28298;SDS011;15565;52.600;6.456;2022-08-04T14:41:48;1.13;;;0.70;;
28298;SDS011;15565;52.600;6.456;2022-08-04T14:47:38;1.50;;;0.55;;
28298;SDS011;15565;52.600;6.456;2022-08-04T14:50:37;3.40;;;0.60;;
28298;SDS011;15565;52.600;6.456;2022-08-04T14:53:25;1.52;;;0.93;;
28298;SDS011;15565;52.600;6.456;2022-08-04T14:56:13;0.98;;;0.50;;
28298;SDS011;15565;52.600;6.456;2022-08-04T14:59:21;0.82;;;0.40;;
28298;SDS011;15565;52.600;6.456;2022-08-04T15:02:09;3.53;;;0.98;;
28298;SDS011;15565;52.600;6.456;2022-08-04T15:04:57;1.50;;;0.63;;
28298;SDS011;15565;52.600;6.456;2022-08-04T15:08:08;1.03;;;0.60;;
28298;SDS011;15565;52.600;6.456;2022-08-04T15:10:54;1.08;;;0.57;;
28298;SDS011;15565;52.600;6.456;2022-08-04T15:13:43;0.80;;;0.40;;
28298;SDS011;15565;52.600;6.456;2022-08-04T15:16:31;1.08;;;0.40;;
28298;SDS011;15565;52.600;6.456;2022-08-04T15:19:18;1.10;;;0.60;;
28298;SDS011;15565;52.600;6.456;2022-08-04T15:22:05;1.17;;;0.50;;
28298;SDS011;15565;52.600;6.456;2022-08-04T15:25:01;4.68;;;0.90;;
28298;SDS011;15565;52.600;6.456;2022-08-04T15:27:53;0.47;;;0.47;;
28298;SDS011;15565;52.600;6.456;2022-08-04T15:30:41;0.55;;;0.55;;
28298;SDS011;15565;52.600;6.456;2022-08-04T15:33:31;1.67;;;0.40;;
28298;SDS011;15565;52.600;6.456;2022-08-04T15:36:20;2.20;;;0.80;;
28298;SDS011;15565;52.600;6.456;2022-08-04T15:39:11;3.13;;;0.70;;
28298;SDS011;15565;52.600;6.456;2022-08-04T15:42:08;13.40;;;1.17;;
28298;SDS011;15565;52.600;6.456;2022-08-04T15:45:20;1.88;;;0.85;;
28298;SDS011;15565;52.600;6.456;2022-08-04T15:48:27;3.50;;;0.65;;
28298;SDS011;15565;52.600;6.456;2022-08-04T15:51:22;0.93;;;0.60;;
28298;SDS011;15565;52.600;6.456;2022-08-04T15:54:20;0.80;;;0.40;;
28298;SDS011;15565;52.600;6.456;2022-08-04T15:57:16;1.35;;;0.75;;
28298;SDS011;15565;52.600;6.456;2022-08-04T16:00:04;2.38;;;0.65;;
28298;SDS011;15565;52.600;6.456;2022-08-04T16:02:58;1.80;;;0.50;;
28298;SDS011;15565;52.600;6.456;2022-08-04T16:05:45;1.15;;;0.57;;
28298;SDS011;15565;52.600;6.456;2022-08-04T16:08:33;0.82;;;0.50;;
28298;SDS011;15565;52.600;6.456;2022-08-04T16:11:42;1.30;;;0.50;;
28298;SDS011;15565;52.600;6.456;2022-08-04T16:14:29;1.40;;;0.60;;
28298;SDS011;15565;52.600;6.456;2022-08-04T16:17:17;3.08;;;0.88;;
28298;SDS011;15565;52.600;6.456;2022-08-04T16:20:07;1.83;;;0.47;;
28298;SDS011;15565;52.600;6.456;2022-08-04T16:22:54;3.03;;;0.90;;
28298;SDS011;15565;52.600;6.456;2022-08-04T16:25:45;0.68;;;0.45;;
28298;SDS011;15565;52.600;6.456;2022-08-04T16:28:36;1.30;;;0.40;;
28298;SDS011;15565;52.600;6.456;2022-08-04T16:31:23;2.45;;;0.60;;
28298;SDS011;15565;52.600;6.456;2022-08-04T16:34:10;4.65;;;0.52;;
28298;SDS011;15565;52.600;6.456;2022-08-04T16:37:18;2.08;;;0.65;;
28298;SDS011;15565;52.600;6.456;2022-08-04T16:40:25;4.00;;;1.10;;
28298;SDS011;15565;52.600;6.456;2022-08-04T16:43:22;2.50;;;0.50;;
28298;SDS011;15565;52.600;6.456;2022-08-04T16:46:13;1.55;;;0.82;;
28298;SDS011;15565;52.600;6.456;2022-08-04T16:49:26;1.05;;;0.95;;
28298;SDS011;15565;52.600;6.456;2022-08-04T16:52:13;2.20;;;0.90;;
28298;SDS011;15565;52.600;6.456;2022-08-04T16:55:01;1.73;;;0.47;;
28298;SDS011;15565;52.600;6.456;2022-08-04T16:57:49;2.85;;;0.80;;
28298;SDS011;15565;52.600;6.456;2022-08-04T17:00:37;1.05;;;0.30;;
28298;SDS011;15565;52.600;6.456;2022-08-04T17:03:24;2.40;;;0.50;;
28298;SDS011;15565;52.600;6.456;2022-08-04T17:06:13;1.35;;;0.40;;
28298;SDS011;15565;52.600;6.456;2022-08-04T17:09:03;1.52;;;0.70;;
28298;SDS011;15565;52.600;6.456;2022-08-04T17:11:50;1.80;;;0.30;;
28298;SDS011;15565;52.600;6.456;2022-08-04T17:14:37;1.60;;;0.90;;
28298;SDS011;15565;52.600;6.456;2022-08-04T17:17:29;1.73;;;0.50;;
28298;SDS011;15565;52.600;6.456;2022-08-04T17:20:38;1.65;;;0.65;;
28298;SDS011;15565;52.600;6.456;2022-08-04T17:23:50;2.00;;;0.50;;
28298;SDS011;15565;52.600;6.456;2022-08-04T17:26:59;2.20;;;0.70;;
28298;SDS011;15565;52.600;6.456;2022-08-04T17:30:11;0.70;;;0.40;;
28298;SDS011;15565;52.600;6.456;2022-08-04T17:33:11;0.73;;;0.60;;
28298;SDS011;15565;52.600;6.456;2022-08-04T17:36:00;1.92;;;0.63;;
28298;SDS011;15565;52.600;6.456;2022-08-04T17:38:48;1.77;;;0.95;;
28298;SDS011;15565;52.600;6.456;2022-08-04T17:41:39;3.08;;;0.70;;
28298;SDS011;15565;52.600;6.456;2022-08-04T17:44:33;1.65;;;0.50;;
28298;SDS011;15565;52.600;6.456;2022-08-04T17:47:21;1.17;;;0.90;;
28298;SDS011;15565;52.600;6.456;2022-08-04T17:50:08;2.80;;;1.40;;
28298;SDS011;15565;52.600;6.456;2022-08-04T17:52:59;0.60;;;0.50;;
28298;SDS011;15565;52.600;6.456;2022-08-04T17:55:56;0.57;;;0.52;;